Aegean Viii — SXKO — position and weather

sailwx.info

Track history (hours):
 
Tides and Currents Weather Stations Pressure Air Temp Water Temp Dewpoint Dewpoint Depression Visibility Wind Speed Wind Dir Waves Ship Positions

Aegean Viii

Last reported at 2017-Oct-19 00:13 UTC. Time now 2017-Oct-20 10:52 UTC.
Position N 37°60' E 022°52'.

Length 12 m; draft 5.2 m.

Type: Tanker. MMSI: 240732000.

Date/timePositionNaut miles runAvg speedWind from/ knotsBaromVisibWave heightAir tempDewpointWater temp
2017-Oct-19 00:13N 37°60' E 022°52'2 8.8
2017-Oct-19 00:00N 37°59' E 022°55'6 6.4
2017-Oct-18 23:05N 37°55' E 023°00'0 5.3
2017-Oct-18 23:00N 37°55' E 023°01'3 6.0
2017-Oct-18 22:30N 37°54' E 023°04'4 8.4
2017-Oct-18 22:00N 37°54' E 023°09'4 8.4
2017-Oct-18 21:30N 37°55' E 023°14'5 8.6
2017-Oct-18 20:59N 37°56' E 023°20'4 8.6
2017-Oct-18 20:30N 37°58' E 023°25'3 5.7
2017-Oct-18 20:00N 38°00' E 023°27'4 8.5
2017-Oct-18 19:30N 38°02' E 023°32'0 0.9
2017-Oct-18 19:00N 38°02' E 023°32'0 0.0
2017-Oct-18 18:30N 38°02' E 023°32'0 0.0
2017-Oct-18 18:00N 38°02' E 023°32'0 0.0
2017-Oct-18 17:30N 38°02' E 023°32'0 0.0
2017-Oct-18 11:03N 38°02' E 023°32'0 0.1
2017-Oct-18 11:00N 38°02' E 023°32'0 0.0
2017-Oct-18 10:30N 38°02' E 023°32'1 1.9
2017-Oct-18 09:59N 38°02' E 023°31'0 0.0
2017-Oct-18 09:30N 38°02' E 023°31'0 0.0
2017-Oct-18 08:59N 38°02' E 023°31'0 0.0
2017-Oct-18 08:30N 38°02' E 023°31'0 0.0
2017-Oct-18 08:00N 38°02' E 023°31'0 0.0
2017-Oct-18 07:30N 38°02' E 023°31'0 0.0
2017-Oct-18 07:00N 38°02' E 023°31'0 0.0
2017-Oct-18 06:30N 38°02' E 023°31'0 0.0
2017-Oct-18 05:59N 38°02' E 023°31'0 0.0
2017-Oct-18 05:29N 38°02' E 023°31'0 0.0
2017-Oct-18 05:00N 38°02' E 023°31'0 0.0
2017-Oct-18 04:30N 38°02' E 023°31'0 0.0
2017-Oct-18 04:01N 38°02' E 023°31'0 0.0
2017-Oct-18 03:31N 38°02' E 023°31'0 0.0
2017-Oct-18 03:00N 38°02' E 023°31'0 0.0
2017-Oct-18 02:31N 38°02' E 023°31'0 0.0
2017-Oct-18 02:00N 38°02' E 023°31'0 0.0
2017-Oct-18 01:31N 38°02' E 023°31'0 0.0
2017-Oct-18 01:00N 38°02' E 023°31'0 0.0
2017-Oct-18 00:30N 38°02' E 023°31'0 0.0
2017-Oct-18 00:01N 38°02' E 023°31'0 0.0
2017-Oct-17 23:30N 38°02' E 023°31'0 0.0
2017-Oct-17 23:00N 38°02' E 023°31'0 0.0
2017-Oct-17 22:30N 38°02' E 023°31'0 0.0
2017-Oct-17 22:01N 38°02' E 023°31'0 0.0
2017-Oct-17 21:30N 38°02' E 023°31'0 0.0
2017-Oct-17 21:00N 38°02' E 023°31'0 0.0
2017-Oct-17 20:30N 38°02' E 023°31'0 0.0
2017-Oct-17 20:01N 38°02' E 023°31'0 0.0
2017-Oct-17 19:30N 38°02' E 023°31'0 0.0
2017-Oct-17 19:00N 38°02' E 023°31'0 0.0
2017-Oct-17 18:30N 38°02' E 023°31'1 1.1
2017-Oct-17 18:00N 38°02' E 023°31'0 0.0
2017-Oct-17 17:31N 38°02' E 023°31'0 0.0
2017-Oct-17 17:01N 38°02' E 023°31'0 0.0
2017-Oct-17 16:30N 38°02' E 023°31'0 0.0
2017-Oct-17 16:00N 38°02' E 023°31'0 0.0
2017-Oct-17 15:30N 38°02' E 023°31'0 0.0
2017-Oct-17 15:00N 38°02' E 023°31'0 0.0
2017-Oct-17 14:30N 38°02' E 023°31'0 0.0
2017-Oct-17 13:30N 38°02' E 023°31'0 0.1
2017-Oct-17 13:00N 38°02' E 023°31'0 0.0
2017-Oct-17 12:30N 38°02' E 023°31'1 1.2
2017-Oct-17 11:59N 38°02' E 023°32'0 0.0
2017-Oct-17 11:30N 38°02' E 023°32'0 0.2
2017-Oct-17 10:59N 38°02' E 023°32'0 0.2
2017-Oct-17 10:30N 38°02' E 023°32'0 0.0
2017-Oct-17 10:00N 38°02' E 023°32'0 0.0
2017-Oct-17 09:30N 38°02' E 023°32'0 0.0
2017-Oct-17 09:00N 38°02' E 023°32'0 0.0
2017-Oct-17 08:30N 38°02' E 023°32'0 0.0
2017-Oct-17 08:00N 38°02' E 023°32'0 0.0
2017-Oct-17 07:29N 38°02' E 023°32'0 0.0
2017-Oct-17 07:00N 38°02' E 023°32'0 0.0
2017-Oct-17 06:30N 38°02' E 023°32'0 0.0
2017-Oct-17 06:00N 38°02' E 023°32'0 0.0
2017-Oct-17 05:30N 38°02' E 023°32'0 0.0
2017-Oct-17 05:00N 38°02' E 023°32'0 0.0
2017-Oct-16 13:28N 38°02' E 023°32'0 0.1
2017-Oct-16 13:00N 38°02' E 023°32'0 0.4
2017-Oct-16 12:30N 38°02' E 023°32'0 0.0
2017-Oct-16 12:00N 38°02' E 023°32'0 0.1
2017-Oct-16 11:30N 38°02' E 023°32'0 0.4
2017-Oct-16 11:00N 38°02' E 023°32'0 0.0
2017-Oct-16 10:30N 38°02' E 023°32'0 0.0
2017-Oct-16 10:00N 38°02' E 023°32'0 0.0
2017-Oct-16 09:31N 38°02' E 023°32'0 0.0
2017-Oct-16 09:00N 38°02' E 023°32'0 0.0
2017-Oct-16 08:30N 38°02' E 023°32'0 0.0
2017-Oct-16 08:01N 38°02' E 023°32'0 0.0
2017-Oct-16 07:31N 38°02' E 023°32'0 0.0
2017-Oct-16 07:00N 38°02' E 023°32'0 0.0
2017-Oct-16 06:30N 38°02' E 023°32'0 0.0
2017-Oct-16 06:00N 38°02' E 023°32'0 0.0
2017-Oct-16 05:29N 38°02' E 023°32'0 0.0
2017-Oct-16 05:01N 38°02' E 023°32'0 0.0
2017-Oct-16 04:31N 38°02' E 023°32'0 0.0
2017-Oct-16 04:00N 38°02' E 023°32'0 0.0
2017-Oct-16 03:31N 38°02' E 023°32'0 0.0
2017-Oct-16 03:00N 38°02' E 023°32'0 0.0
2017-Oct-16 02:30N 38°02' E 023°32'0 0.1
2017-Oct-16 02:00N 38°02' E 023°32'3 5.8
2017-Oct-16 01:30N 38°01' E 023°29'3 6.9
2017-Oct-16 01:00N 37°58' E 023°26'4 8.8
2017-Oct-16 00:31N 37°57' E 023°21'5 9.8
2017-Oct-16 00:00N 37°55' E 023°15'5 9.8
2017-Oct-15 23:30N 37°54' E 023°09'5 9.6
2017-Oct-15 23:00N 37°54' E 023°02'4 5.5
2017-Oct-15 22:12N 37°57' E 022°58'1 4.8
2017-Oct-15 22:00N 37°57' E 022°57'3 5.9
2017-Oct-15 21:30N 37°59' E 022°54'  
2017-Oct-09 22:46N 38°01' E 022°49'2 7.7
2017-Oct-09 22:28N 38°00' E 022°51'4 7.7
2017-Oct-09 21:57N 37°58' E 022°56'5 4.8
2017-Oct-09 20:59N 37°55' E 023°00'2 3.4
2017-Oct-09 20:30N 37°54' E 023°02'3 6.6
2017-Oct-09 20:00N 37°54' E 023°06'4 8.5
2017-Oct-09 19:30N 37°55' E 023°11'4 8.5
2017-Oct-09 19:00N 37°56' E 023°16'4 8.6
2017-Oct-09 18:30N 37°57' E 023°22'3 6.2
2017-Oct-09 18:00N 37°59' E 023°25'3 7.1
2017-Oct-09 17:30N 38°01' E 023°29'2 4.5
2017-Oct-09 17:01N 38°02' E 023°31'0 0.0
2017-Oct-09 16:29N 38°02' E 023°31'0 0.0
2017-Oct-09 16:00N 38°02' E 023°31'0 0.0
2017-Oct-09 15:30N 38°02' E 023°31'0 0.0
2017-Oct-09 14:59N 38°02' E 023°31'0 0.0
2017-Oct-09 14:28N 38°02' E 023°31'0 0.0
2017-Oct-09 13:57N 38°02' E 023°31'0 0.0
2017-Oct-09 13:30N 38°02' E 023°31'0 0.0
2017-Oct-09 13:01N 38°02' E 023°31'0 0.0
2017-Oct-09 12:30N 38°02' E 023°31'0 0.0
2017-Oct-09 12:00N 38°02' E 023°31'0 0.0
2017-Oct-09 11:30N 38°02' E 023°31'0 0.0
2017-Oct-09 11:00N 38°02' E 023°31'0 0.0
2017-Oct-09 10:30N 38°02' E 023°31'0 0.2
2017-Oct-09 10:00N 38°02' E 023°31'1 1.2
2017-Oct-09 09:30N 38°02' E 023°31'0 0.1
2017-Oct-09 09:00N 38°02' E 023°31'0 0.0
2017-Oct-09 08:30N 38°02' E 023°31'0 0.0
2017-Oct-09 08:01N 38°02' E 023°31'1 1.4
2017-Oct-09 07:30N 38°02' E 023°32'0 0.0
2017-Oct-09 07:00N 38°02' E 023°32'0 0.0
2017-Oct-09 06:31N 38°02' E 023°32'0 0.0
2017-Oct-09 06:00N 38°02' E 023°32'0 0.0
2017-Oct-09 05:30N 38°02' E 023°32'0 0.0
2017-Oct-09 05:01N 38°02' E 023°32'0 0.0
2017-Oct-09 04:30N 38°02' E 023°32'0 0.0
2017-Oct-09 04:00N 38°02' E 023°32'0 0.0
2017-Oct-09 03:30N 38°02' E 023°32'0 0.0
2017-Oct-09 03:00N 38°02' E 023°32'0 0.0
2017-Oct-09 02:30N 38°02' E 023°32'0 0.0
2017-Oct-09 02:00N 38°02' E 023°32'0 0.0
2017-Oct-09 01:30N 38°02' E 023°32'0 0.0
2017-Oct-09 01:00N 38°02' E 023°32'0 0.0
2017-Oct-09 00:30N 38°02' E 023°32'  
Track history (hours):
 
Tides and Currents Weather Stations Pressure Air Temp Water Temp Dewpoint Dewpoint Depression Visibility Wind Speed Wind Dir Waves Ship Positions

Aegean Viii

Last reported at 2017-Oct-19 00:13 UTC. Time now 2017-Oct-20 10:52 UTC.
Position N 37°60' E 022°52'.

Length 12 m; draft 5.2 m.

Type: Tanker. MMSI: 240732000.

Date/timePositionNaut miles runAvg speedWind from/ knotsBaromVisibWave heightAir tempDewpointWater temp
2017-Oct-19 00:13N 37°60' E 022°52'2 8.8
2017-Oct-19 00:00N 37°59' E 022°55'6 6.4
2017-Oct-18 23:05N 37°55' E 023°00'0 5.3
2017-Oct-18 23:00N 37°55' E 023°01'3 6.0
2017-Oct-18 22:30N 37°54' E 023°04'4 8.4
2017-Oct-18 22:00N 37°54' E 023°09'4 8.4
2017-Oct-18 21:30N 37°55' E 023°14'5 8.6
2017-Oct-18 20:59N 37°56' E 023°20'4 8.6
2017-Oct-18 20:30N 37°58' E 023°25'3 5.7
2017-Oct-18 20:00N 38°00' E 023°27'4 8.5
2017-Oct-18 19:30N 38°02' E 023°32'0 0.9
2017-Oct-18 19:00N 38°02' E 023°32'0 0.0
2017-Oct-18 18:30N 38°02' E 023°32'0 0.0
2017-Oct-18 18:00N 38°02' E 023°32'0 0.0
2017-Oct-18 17:30N 38°02' E 023°32'0 0.0
2017-Oct-18 11:03N 38°02' E 023°32'0 0.1
2017-Oct-18 11:00N 38°02' E 023°32'0 0.0
2017-Oct-18 10:30N 38°02' E 023°32'1 1.9
2017-Oct-18 09:59N 38°02' E 023°31'0 0.0
2017-Oct-18 09:30N 38°02' E 023°31'0 0.0
2017-Oct-18 08:59N 38°02' E 023°31'0 0.0
2017-Oct-18 08:30N 38°02' E 023°31'0 0.0
2017-Oct-18 08:00N 38°02' E 023°31'0 0.0
2017-Oct-18 07:30N 38°02' E 023°31'0 0.0
2017-Oct-18 07:00N 38°02' E 023°31'0 0.0
2017-Oct-18 06:30N 38°02' E 023°31'0 0.0
2017-Oct-18 05:59N 38°02' E 023°31'0 0.0
2017-Oct-18 05:29N 38°02' E 023°31'0 0.0
2017-Oct-18 05:00N 38°02' E 023°31'0 0.0
2017-Oct-18 04:30N 38°02' E 023°31'0 0.0
2017-Oct-18 04:01N 38°02' E 023°31'0 0.0
2017-Oct-18 03:31N 38°02' E 023°31'0 0.0
2017-Oct-18 03:00N 38°02' E 023°31'0 0.0
2017-Oct-18 02:31N 38°02' E 023°31'0 0.0
2017-Oct-18 02:00N 38°02' E 023°31'0 0.0
2017-Oct-18 01:31N 38°02' E 023°31'0 0.0
2017-Oct-18 01:00N 38°02' E 023°31'0 0.0
2017-Oct-18 00:30N 38°02' E 023°31'0 0.0
2017-Oct-18 00:01N 38°02' E 023°31'0 0.0
2017-Oct-17 23:30N 38°02' E 023°31'0 0.0
2017-Oct-17 23:00N 38°02' E 023°31'0 0.0
2017-Oct-17 22:30N 38°02' E 023°31'0 0.0
2017-Oct-17 22:01N 38°02' E 023°31'0 0.0
2017-Oct-17 21:30N 38°02' E 023°31'0 0.0
2017-Oct-17 21:00N 38°02' E 023°31'0 0.0
2017-Oct-17 20:30N 38°02' E 023°31'0 0.0
2017-Oct-17 20:01N 38°02' E 023°31'0 0.0
2017-Oct-17 19:30N 38°02' E 023°31'0 0.0
2017-Oct-17 19:00N 38°02' E 023°31'0 0.0
2017-Oct-17 18:30N 38°02' E 023°31'1 1.1
2017-Oct-17 18:00N 38°02' E 023°31'0 0.0
2017-Oct-17 17:31N 38°02' E 023°31'0 0.0
2017-Oct-17 17:01N 38°02' E 023°31'0 0.0
2017-Oct-17 16:30N 38°02' E 023°31'0 0.0
2017-Oct-17 16:00N 38°02' E 023°31'0 0.0
2017-Oct-17 15:30N 38°02' E 023°31'0 0.0
2017-Oct-17 15:00N 38°02' E 023°31'0 0.0
2017-Oct-17 14:30N 38°02' E 023°31'0 0.0
2017-Oct-17 13:30N 38°02' E 023°31'0 0.1
2017-Oct-17 13:00N 38°02' E 023°31'0 0.0
2017-Oct-17 12:30N 38°02' E 023°31'1 1.2
2017-Oct-17 11:59N 38°02' E 023°32'0 0.0
2017-Oct-17 11:30N 38°02' E 023°32'0 0.2
2017-Oct-17 10:59N 38°02' E 023°32'0 0.2
2017-Oct-17 10:30N 38°02' E 023°32'0 0.0
2017-Oct-17 10:00N 38°02' E 023°32'0 0.0
2017-Oct-17 09:30N 38°02' E 023°32'0 0.0
2017-Oct-17 09:00N 38°02' E 023°32'0 0.0
2017-Oct-17 08:30N 38°02' E 023°32'0 0.0
2017-Oct-17 08:00N 38°02' E 023°32'0 0.0
2017-Oct-17 07:29N 38°02' E 023°32'0 0.0
2017-Oct-17 07:00N 38°02' E 023°32'0 0.0
2017-Oct-17 06:30N 38°02' E 023°32'0 0.0
2017-Oct-17 06:00N 38°02' E 023°32'0 0.0
2017-Oct-17 05:30N 38°02' E 023°32'0 0.0
2017-Oct-17 05:00N 38°02' E 023°32'0 0.0
2017-Oct-16 13:28N 38°02' E 023°32'0 0.1
2017-Oct-16 13:00N 38°02' E 023°32'0 0.4
2017-Oct-16 12:30N 38°02' E 023°32'0 0.0
2017-Oct-16 12:00N 38°02' E 023°32'0 0.1
2017-Oct-16 11:30N 38°02' E 023°32'0 0.4
2017-Oct-16 11:00N 38°02' E 023°32'0 0.0
2017-Oct-16 10:30N 38°02' E 023°32'0 0.0
2017-Oct-16 10:00N 38°02' E 023°32'0 0.0
2017-Oct-16 09:31N 38°02' E 023°32'0 0.0
2017-Oct-16 09:00N 38°02' E 023°32'0 0.0
2017-Oct-16 08:30N 38°02' E 023°32'0 0.0
2017-Oct-16 08:01N 38°02' E 023°32'0 0.0
2017-Oct-16 07:31N 38°02' E 023°32'0 0.0
2017-Oct-16 07:00N 38°02' E 023°32'0 0.0
2017-Oct-16 06:30N 38°02' E 023°32'0 0.0
2017-Oct-16 06:00N 38°02' E 023°32'0 0.0
2017-Oct-16 05:29N 38°02' E 023°32'0 0.0
2017-Oct-16 05:01N 38°02' E 023°32'0 0.0
2017-Oct-16 04:31N 38°02' E 023°32'0 0.0
2017-Oct-16 04:00N 38°02' E 023°32'0 0.0
2017-Oct-16 03:31N 38°02' E 023°32'0 0.0
2017-Oct-16 03:00N 38°02' E 023°32'0 0.0
2017-Oct-16 02:30N 38°02' E 023°32'0 0.1
2017-Oct-16 02:00N 38°02' E 023°32'3 5.8
2017-Oct-16 01:30N 38°01' E 023°29'3 6.9
2017-Oct-16 01:00N 37°58' E 023°26'4 8.8
2017-Oct-16 00:31N 37°57' E 023°21'5 9.8
2017-Oct-16 00:00N 37°55' E 023°15'5 9.8
2017-Oct-15 23:30N 37°54' E 023°09'5 9.6
2017-Oct-15 23:00N 37°54' E 023°02'4 5.5
2017-Oct-15 22:12N 37°57' E 022°58'1 4.8
2017-Oct-15 22:00N 37°57' E 022°57'3 5.9
2017-Oct-15 21:30N 37°59' E 022°54'  
2017-Oct-09 22:46N 38°01' E 022°49'2 7.7
2017-Oct-09 22:28N 38°00' E 022°51'4 7.7
2017-Oct-09 21:57N 37°58' E 022°56'5 4.8
2017-Oct-09 20:59N 37°55' E 023°00'2 3.4
2017-Oct-09 20:30N 37°54' E 023°02'3 6.6
2017-Oct-09 20:00N 37°54' E 023°06'4 8.5
2017-Oct-09 19:30N 37°55' E 023°11'4 8.5
2017-Oct-09 19:00N 37°56' E 023°16'4 8.6
2017-Oct-09 18:30N 37°57' E 023°22'3 6.2
2017-Oct-09 18:00N 37°59' E 023°25'3 7.1
2017-Oct-09 17:30N 38°01' E 023°29'2 4.5
2017-Oct-09 17:01N 38°02' E 023°31'0 0.0
2017-Oct-09 16:29N 38°02' E 023°31'0 0.0
2017-Oct-09 16:00N 38°02' E 023°31'0 0.0
2017-Oct-09 15:30N 38°02' E 023°31'0 0.0
2017-Oct-09 14:59N 38°02' E 023°31'0 0.0
2017-Oct-09 14:28N 38°02' E 023°31'0 0.0
2017-Oct-09 13:57N 38°02' E 023°31'0 0.0
2017-Oct-09 13:30N 38°02' E 023°31'0 0.0
2017-Oct-09 13:01N 38°02' E 023°31'0 0.0
2017-Oct-09 12:30N 38°02' E 023°31'0 0.0
2017-Oct-09 12:00N 38°02' E 023°31'0 0.0
2017-Oct-09 11:30N 38°02' E 023°31'0 0.0
2017-Oct-09 11:00N 38°02' E 023°31'0 0.0
2017-Oct-09 10:30N 38°02' E 023°31'0 0.2
2017-Oct-09 10:00N 38°02' E 023°31'1 1.2
2017-Oct-09 09:30N 38°02' E 023°31'0 0.1
2017-Oct-09 09:00N 38°02' E 023°31'0 0.0
2017-Oct-09 08:30N 38°02' E 023°31'0 0.0
2017-Oct-09 08:01N 38°02' E 023°31'1 1.4
2017-Oct-09 07:30N 38°02' E 023°32'0 0.0
2017-Oct-09 07:00N 38°02' E 023°32'0 0.0
2017-Oct-09 06:31N 38°02' E 023°32'0 0.0
2017-Oct-09 06:00N 38°02' E 023°32'0 0.0
2017-Oct-09 05:30N 38°02' E 023°32'0 0.0
2017-Oct-09 05:01N 38°02' E 023°32'0 0.0
2017-Oct-09 04:30N 38°02' E 023°32'0 0.0
2017-Oct-09 04:00N 38°02' E 023°32'0 0.0
2017-Oct-09 03:30N 38°02' E 023°32'0 0.0
2017-Oct-09 03:00N 38°02' E 023°32'0 0.0
2017-Oct-09 02:30N 38°02' E 023°32'0 0.0
2017-Oct-09 02:00N 38°02' E 023°32'0 0.0
2017-Oct-09 01:30N 38°02' E 023°32'0 0.0
2017-Oct-09 01:00N 38°02' E 023°32'0 0.0
2017-Oct-09 00:30N 38°02' E 023°32'  

Dump ship's entire track history